HALF-HOURLY OBSERVATIONS INDEX

041

Darling Downs - east

APPLETHORPE

Site: 041175
Alt: 871.6m
118km S of TOOWOOMBA


  Time     Wind        Temp  DP   Baro     Rain since   Rain past  Vis(m), Cloud(base in m), Weather
  local        km/h                         9am  last   hr   10m    
Mon 10:00  SSW  7/ 11  26.0 17.1  1019.5    0.0   0.0   0.0   0.0   ----- 
Mon 10:30   SW  6/ 13  26.9 17.4  1019.3    0.0   0.0   0.0   0.0   ----- 
Mon 11:00  SSW  7/ 15  27.0 16.6  1019.0    0.0   0.0   0.0   0.0   ----- 
Mon 11:30  SSW  9/ 17  26.3 15.4  1018.8    0.0   0.0   0.0   0.0   ----- 
Mon 12:00  SSW  9/ 19  28.0 15.6  1018.5    0.0   0.0   0.0   0.0   ----- 
Mon 12:30  SSW 13/ 20  27.2 14.9  1018.2    0.0   0.0   0.0   0.0   ----- 
Mon 13:00  SSW 13/ 22  27.4 15.4  1017.8    0.0   0.0   0.0   0.0   ----- 
Mon 13:30   SW  9/ 22  27.5 13.4  1017.5    0.0   0.0   0.0   0.0   ----- 
Mon 14:00   SW  9/ 15  29.2 14.2  1016.9    0.0   0.0   0.0   0.0   ----- 
Mon 14:30   SW  9/ 17  30.1 14.6  1016.6    0.0   0.0   0.0   0.0   ----- 
Mon 15:00  SSW  9/ 20  29.6 13.4  1016.2    0.0   0.0   0.0   0.0   ----- 
Mon 15:30    S  7/ 13  29.7 13.0  1016.3    0.0   0.0   0.0   0.0   ----- 

BRISBANE WEST WELLCAMP AIRPORT

Site: 041BWW
Alt: 530m
17km W of TOOWOOMBA


  Time     Wind        Temp  DP   Baro     Rain since   Rain past  Vis(m), Cloud(base in m), Weather
  local        km/h                         9am  last   hr   10m    
Mon 10:00   NE 11/ 19  27.8 19.8  1016.5    0.0   0.0   0.0   0.0   10000 
Mon 10:30   NE  7/ 15  27.9 19.4  1016.1    0.0   0.0   0.0   0.0   10000|SC 990 
Mon 11:00   NE  9/ 15  29.1 19.7  1015.7    0.0   0.0   0.0   0.0   10000|SC1230 
Mon 11:30    E  6/ 17  29.9 19.6  1015.5    0.0   0.0   0.0   0.0   10000|SC1290 
Mon 12:00   SW  6/  9  29.3 20.2  1015.2    0.0   0.0   0.0   0.0   10000|SC1350 BR1650 
Mon 12:30    W  7/ 13  30.8 19.5  1014.6    0.0   0.0   0.0   0.0   10000|SC1410 BR1800 BR2670 
Mon 13:00    N  6/ 17  30.6 18.0  1014.2    0.0   0.0   0.0   0.0   10000|SC1710 BR2490 
Mon 13:30  WSW  6/ 11  31.9 19.2  1013.8    0.0   0.0   0.0   0.0   10000|SC1770 SC2100 
Mon 14:00   NE  6/ 11  30.7 17.7  1013.4    0.0   0.0   0.0   0.0   10000|SC1770 SC2250 BR2640 
Mon 14:30  NNE  7/ 11  32.1 18.7  1012.9    0.0   0.0   0.0   0.0   10000|SC1830 
Mon 15:00  NNE  9/ 19  32.5 19.4  1012.5    0.0   0.0   0.0   0.0   10000|SC1890 
Mon 15:30  ENE  9/ 24  32.0 18.9  1012.2    0.0   0.0   0.0   0.0   10000|SC1950 SC2850 

DALBY AIRPORT

Site: 041522
Alt: 343.9m
3km NNE of DALBY


  Time     Wind        Temp  DP   Baro     Rain since   Rain past  Vis(m), Cloud(base in m), Weather
  local        km/h                         9am  last   hr   10m    
Mon 10:00    E 13/ 20  28.5 20.2  1016.3    0.0   0.0   0.0   0.0   ----- 
Mon 10:30    E  7/ 15  29.0 20.4  1016.0    0.0   0.0   0.0   0.0   ----- 
Mon 11:00  ESE  9/ 17  30.3 20.2  1015.7    0.0   0.0   0.0   0.0   ----- 
Mon 11:30  SSE 13/ 19  30.6 19.3  1015.4    0.0   0.0   0.0   0.0   ----- 
Mon 12:00  SSE 11/ 20  31.5 19.2  1015.1    0.0   0.0   0.0   0.0   ----- 
Mon 12:30    S 11/ 20  32.0 19.6  1014.6    0.0   0.0   0.0   0.0   ----- 
Mon 13:00    S 17/ 24  32.3 18.8  1014.3    0.0   0.0   0.0   0.0   ----- 
Mon 13:30    S 15/ 32  33.3 19.4  1013.8    0.0   0.0   0.0   0.0   ----- 
Mon 14:00   SE 17/ 24  32.9 18.3  1013.3    0.0   0.0   0.0   0.0   ----- 
Mon 14:30  SSE 13/ 22  33.6 19.3  1012.8    0.0   0.0   0.0   0.0   ----- 
Mon 15:00    S 11/ 22  33.4 18.0  1012.4    0.0   0.0   0.0   0.0   ----- 
Mon 15:30  ESE 13/ 19  34.1 18.6  1012.1    0.0   0.0   0.0   0.0   ----- 

OAKEY AERO

Site: 041359
Alt: 405.7m
27km NW of TOOWOOMBA


  Time     Wind        Temp  DP   Baro     Rain since   Rain past  Vis(m), Cloud(base in m), Weather
  local        km/h                         9am  last   hr   10m    
Mon 10:00    E  9/ 15  27.9 19.7  1016.6    0.0   0.0   0.0   0.0   10000 
Mon 10:30  ESE  9/ 17  28.7 19.9  1016.3    0.0   0.0   0.0   0.0   10000 
Mon 11:00  ESE 13/ 19  30.5 18.9  1015.9    0.0   0.0   0.0   0.0   10000 
Mon 11:30  NNE  7/ 13  30.9 18.3  1015.6    0.0   0.0   0.0   0.0   10000|SC1290 
Mon 12:00   SE 13/ 22  31.3 16.1  1015.3    0.0   0.0   0.0   0.0   10000|SC1410 SC1710 
Mon 12:30    S 15/ 24  31.3 15.3  1014.9    0.0   0.0   0.0   0.0  *10000|SC1470cu 
Mon 13:00  SSE 17/ 26  32.6 16.0  1014.3    0.0   0.0   0.0   0.0   10000|SC2550 
Mon 13:30  ESE 17/ 24  31.9 15.0  1014.0    0.0   0.0   0.0   0.0   10000|SC1860 SC2730 
Mon 14:00    E 15/ 20  31.8 14.4  1013.6    0.0   0.0   0.0   0.0   10000|SC1800 SC2100 BR2760 
Mon 14:30  SSE 11/ 15  31.4 15.4  1013.1    0.0   0.0   0.0   0.0   10000|SC1830 BR2100 BR2820 
Mon 15:00   SW  7/ 15  33.4 16.3  1012.8    0.0   0.0   0.0   0.0   10000|SC1950 SC2310 BR2580 

TOOWOOMBA AIRPORT

Site: 041529
Alt: 640.9m
4km WNW of TOOWOOMBA


  Time     Wind        Temp  DP   Baro     Rain since   Rain past  Vis(m), Cloud(base in m), Weather
  local        km/h                         9am  last   hr   10m    
Mon 10:00    E 11/ 17  25.0 19.6  1019.0    0.0   0.0   0.0   0.0   10000 
Mon 10:30    E 13/ 22  25.4 19.8  1018.7    0.0   0.0   0.0   0.0   10000 
Mon 11:00  ENE 11/ 20  26.2 19.8  1018.3    0.0   0.0   0.0   0.0   10000 
Mon 11:30    E 11/ 19  27.1 20.0  1018.1    0.0   0.0   0.0   0.0   10000 
Mon 12:00    E 13/ 22  27.9 19.7  1017.9    0.0   0.0   0.0   0.0   10000 
Mon 12:30   SE 13/ 22  28.2 19.2  1017.6    0.0   0.0   0.0   0.0   10000|SC1050 
Mon 13:00    E 20/ 26  28.7 19.3  1017.1    0.0   0.0   0.0   0.0   10000 
Mon 13:30  SSE  7/ 11  29.0 18.4  1016.6    0.0   0.0   0.0   0.0   10000 
Mon 14:00    E 15/ 30  29.4 18.8  1016.1    0.0   0.0   0.0   0.0   10000|SC1350 SC2430 
Mon 14:30    E 15/ 22  29.6 19.6  1015.7    0.0   0.0   0.0   0.0   10000|SC1590 
Mon 15:00    E 17/ 26  28.4 18.5  1015.5    0.0   0.0   0.0   0.0   10000 
Mon 15:30  ENE 19/ 30  29.5 18.6  1015.3    0.0   0.0   0.0   0.0   10000 

WARWICK

Site: 041525
Alt: 475.4m
73km SSE of TOOWOOMBA


  Time     Wind        Temp  DP   Baro     Rain since   Rain past  Vis(m), Cloud(base in m), Weather
  local        km/h                         9am  last   hr   10m    
Mon 10:00    E  9/ 13  28.0 18.7  1016.6    0.0   0.0   0.0   0.0   ----- 
Mon 10:30    S  6/ 13  28.8 18.3  1016.3    0.0   0.0   0.0   0.0   ----- 
Mon 11:00  WSW 11/ 19  29.9 19.9  1016.0    0.0   0.0   0.0   0.0   ----- 
Mon 11:30  WSW  7/ 13  30.3 18.4  1015.5    0.0   0.0   0.0   0.0   ----- 
Mon 12:00    W  6/ 13  30.7 18.4  1015.1    0.0   0.0   0.0   0.0   ----- 
Mon 12:30  SSE 11/ 20  30.3 17.0  1014.7    0.0   0.0   0.0   0.0   ----- 
Mon 13:00   NE 11/ 19  31.3 16.5  1014.3    0.0   0.0   0.0   0.0   ----- 
Mon 13:30  ENE 13/ 17  31.6 16.4  1013.8    0.0   0.0   0.0   0.0   ----- 
Mon 14:00    W  9/ 13  32.5 17.5  1013.3    0.0   0.0   0.0   0.0   ----- 
Mon 14:30   SE  9/ 20  33.9 17.6  1012.8    0.0   0.0   0.0   0.0   ----- 
Mon 15:00   SE  6/  9  31.8 16.1  1012.8    0.0   0.0   0.0   0.0   ----- 
Mon 15:30  ESE  7/ 13  31.9 16.6  1012.6    0.0   0.0   0.0   0.0   -----